New Paris, Indiana
Current Conditions -  °F | °C
As of 5:12 PM on Thursday 27 Nov 2014 (Local Time) from KGSH Reporting Station
Heavy Snow Heavy Snow  
Wind Chill: -9°   Ceiling: 800
Heat Index: -3°   Visibility: 0.25mi
Dew Point: -4°   Wind: 12mph
Humidity: 89%   Direction: 300°WNW
Pressure: 30.29"   Gusts: NA
Location:  41.5°N, 85.83°W
Report Text: KGSH 272212Z AUTO 30010KT 1/4SM +SN FZFG VV008 M03/M04 A3029 RMK AO2 P0001 T10281044
Loading
Personal Weather Stations






























Interactive Weather Map New forecast layout! Learn more

10-Day Weather Forecast

Advertisements
Track Severe Weather on mobile